createdAt,value
2022-12-19T00:00:45.485Z,128
2022-12-19T00:01:47.781Z,128
2022-12-19T00:02:49.605Z,129
2022-12-19T00:03:51.608Z,129
2022-12-19T00:04:53.461Z,129
2022-12-19T00:05:55.516Z,130
2022-12-19T00:06:57.781Z,130
2022-12-19T00:08:00.548Z,132
2022-12-19T00:09:01.441Z,132
2022-12-19T00:10:03.551Z,132
2022-12-19T00:11:05.529Z,131
2022-12-19T00:12:07.863Z,130
2022-12-19T00:13:09.521Z,130
2022-12-19T00:14:11.409Z,130
2022-12-19T00:15:13.481Z,-1
2022-12-19T00:16:15.554Z,130
2022-12-19T00:17:17.552Z,130
2022-12-19T00:18:19.366Z,129
2022-12-19T00:19:21.483Z,131
2022-12-19T00:20:23.501Z,133
2022-12-19T00:21:25.562Z,132
2022-12-19T00:22:27.882Z,130
2022-12-19T00:23:29.405Z,132
2022-12-19T00:24:31.461Z,132
2022-12-19T00:25:33.481Z,129
2022-12-19T00:26:36.454Z,130
2022-12-19T00:27:38.483Z,131
2022-12-19T00:28:40.443Z,133
2022-12-19T00:29:42.361Z,130
2022-12-19T00:30:44.464Z,130
2022-12-19T00:31:46.647Z,129
2022-12-19T00:32:48.565Z,129
2022-12-19T00:33:50.500Z,129
2022-12-19T00:34:52.522Z,130
2022-12-19T00:35:54.829Z,130
2022-12-19T00:36:57.564Z,131
2022-12-19T00:37:59.641Z,130
2022-12-19T00:39:01.665Z,130
2022-12-19T00:40:03.541Z,130
2022-12-19T00:41:05.481Z,129
2022-12-19T00:42:07.344Z,129
2022-12-19T00:43:09.481Z,129
2022-12-19T00:44:11.489Z,130
2022-12-19T00:45:13.358Z,130
2022-12-19T00:46:15.528Z,133
2022-12-19T00:47:17.482Z,130
2022-12-19T00:48:19.596Z,129
2022-12-19T00:49:21.521Z,129
2022-12-19T00:50:23.381Z,129
2022-12-19T00:51:25.462Z,129
2022-12-19T00:52:27.701Z,129
2022-12-19T00:53:29.541Z,129
2022-12-19T00:54:31.581Z,129
2022-12-19T00:55:33.461Z,128
2022-12-19T00:56:37.401Z,129
2022-12-19T00:57:37.362Z,129
2022-12-19T00:58:43.478Z,129
2022-12-19T00:59:41.560Z,129
2022-12-19T01:00:43.509Z,129
2022-12-19T01:01:45.603Z,129
2022-12-19T01:02:47.589Z,128
2022-12-19T01:04:19.062Z,129
2022-12-19T01:04:51.502Z,131
2022-12-19T01:05:54.242Z,132
2022-12-19T01:06:57.776Z,132
2022-12-19T01:07:58.405Z,130
2022-12-19T01:09:00.436Z,133
2022-12-19T01:10:02.530Z,134
2022-12-19T01:11:04.855Z,135
2022-12-19T01:12:06.755Z,133
2022-12-19T01:13:08.297Z,135
2022-12-19T01:14:09.264Z,133
2022-12-19T01:15:10.378Z,135
2022-12-19T01:16:12.487Z,137
2022-12-19T01:17:14.341Z,136
2022-12-19T01:18:16.298Z,135
2022-12-19T01:19:18.404Z,138
2022-12-19T01:20:22.246Z,137
2022-12-19T01:21:22.418Z,138
2022-12-19T01:22:24.296Z,139
2022-12-19T01:23:25.418Z,139
2022-12-19T01:24:27.337Z,138
2022-12-19T01:25:29.498Z,140
2022-12-19T01:26:31.316Z,139
2022-12-19T01:27:32.395Z,138
2022-12-19T01:28:34.401Z,138
2022-12-19T01:29:36.789Z,140
2022-12-19T01:30:38.375Z,141
2022-12-19T01:31:40.383Z,141
2022-12-19T01:32:42.485Z,144
2022-12-19T01:33:44.356Z,144
2022-12-19T01:34:46.520Z,144
2022-12-19T01:35:48.383Z,144
2022-12-19T01:36:50.416Z,145
2022-12-19T01:37:53.900Z,145
2022-12-19T01:38:54.557Z,144
2022-12-19T01:39:56.264Z,145
2022-12-19T01:40:57.329Z,146
2022-12-19T01:41:59.395Z,146
2022-12-19T01:43:01.718Z,147
2022-12-19T01:44:03.543Z,148
2022-12-19T01:45:05.755Z,148
2022-12-19T01:46:07.864Z,150
2022-12-19T01:47:09.296Z,150
2022-12-19T01:48:10.416Z,149
2022-12-19T01:49:12.418Z,151
2022-12-19T01:50:14.505Z,150
2022-12-19T01:51:16.416Z,151
2022-12-19T01:52:23.801Z,150
2022-12-19T01:53:20.676Z,151
2022-12-19T01:54:22.456Z,149
2022-12-19T01:55:24.296Z,149
2022-12-19T01:56:26.442Z,150
2022-12-19T01:57:28.246Z,150
2022-12-19T01:58:29.279Z,151
2022-12-19T01:59:31.443Z,151
2022-12-19T02:00:33.404Z,150
2022-12-19T02:01:35.606Z,150
2022-12-19T02:02:37.348Z,150
2022-12-19T02:06:51.659Z,150
2022-12-19T02:07:53.704Z,149
2022-12-19T02:08:55.343Z,149
2022-12-19T02:09:57.860Z,148
2022-12-19T02:10:59.260Z,150
2022-12-19T02:12:01.471Z,148
2022-12-19T02:13:03.375Z,148
2022-12-19T02:14:05.428Z,148
2022-12-19T02:15:07.373Z,148
2022-12-19T02:16:09.421Z,148
2022-12-19T02:17:11.306Z,146
2022-12-19T02:18:13.368Z,145
2022-12-19T02:19:15.351Z,144
2022-12-19T02:20:17.287Z,143
2022-12-19T02:21:19.289Z,141
2022-12-19T02:22:21.510Z,141
2022-12-19T02:23:23.408Z,139
2022-12-19T02:24:25.350Z,138
2022-12-19T02:25:27.334Z,140
2022-12-19T02:26:29.401Z,140
2022-12-19T02:27:33.904Z,140
2022-12-19T02:28:33.393Z,138
2022-12-19T02:29:35.393Z,140
2022-12-19T02:30:37.348Z,139
2022-12-19T02:31:39.399Z,137
2022-12-19T02:32:41.393Z,136
2022-12-19T02:33:43.420Z,137
2022-12-19T02:34:45.482Z,136
2022-12-19T02:35:47.368Z,137
2022-12-19T02:36:49.404Z,136
2022-12-19T02:37:52.892Z,137
2022-12-19T02:38:53.477Z,137
2022-12-19T02:39:55.323Z,140
2022-12-19T02:40:57.379Z,138
2022-12-19T02:41:59.366Z,998
2022-12-19T02:43:01.561Z,136
2022-12-19T02:44:03.763Z,136
2022-12-19T02:45:05.441Z,135
2022-12-19T02:46:07.533Z,135
2022-12-19T02:47:09.442Z,136
2022-12-19T02:48:13.047Z,135
2022-12-19T02:49:14.081Z,135
2022-12-19T02:50:15.463Z,134
2022-12-19T02:51:17.444Z,133
2022-12-19T02:52:19.389Z,133
2022-12-19T02:53:23.815Z,130
2022-12-19T02:54:23.388Z,130
2022-12-19T02:55:25.446Z,129
2022-12-19T02:56:27.447Z,129
2022-12-19T02:57:29.369Z,129
2022-12-19T02:58:30.327Z,128
2022-12-19T02:59:32.508Z,130
2022-12-19T03:00:34.469Z,128
2022-12-19T03:01:36.632Z,128
2022-12-19T03:02:38.656Z,128
2022-12-19T03:03:40.456Z,127
2022-12-19T03:04:42.352Z,128
2022-12-19T03:05:44.442Z,127
2022-12-19T03:06:46.430Z,128
2022-12-19T03:07:48.354Z,126
2022-12-19T03:08:49.416Z,125
2022-12-19T03:09:51.499Z,124
2022-12-19T03:10:53.473Z,125
2022-12-19T03:11:55.354Z,123
2022-12-19T03:12:57.340Z,122
2022-12-19T03:13:59.394Z,121
2022-12-19T03:15:01.438Z,124
2022-12-19T03:16:03.400Z,-1
2022-12-19T03:17:05.534Z,123
2022-12-19T03:18:07.442Z,122
2022-12-19T03:19:09.422Z,123
2022-12-19T03:20:11.376Z,122
2022-12-19T03:21:13.546Z,123
2022-12-19T03:22:15.472Z,123
2022-12-19T03:23:17.410Z,123
2022-12-19T03:24:19.544Z,121
2022-12-19T03:25:21.438Z,122
2022-12-19T03:26:23.477Z,121
2022-12-19T03:27:25.517Z,122
2022-12-19T03:28:27.459Z,122
2022-12-19T03:29:29.507Z,119
2022-12-19T03:30:31.597Z,118
2022-12-19T03:31:33.374Z,118
2022-12-19T03:32:35.461Z,118
2022-12-19T03:33:37.485Z,118
2022-12-19T03:34:39.530Z,118
2022-12-19T03:35:41.327Z,118
2022-12-19T03:36:42.381Z,118
2022-12-19T03:37:44.442Z,118
2022-12-19T03:38:46.929Z,116
2022-12-19T03:39:48.586Z,115
2022-12-19T03:40:50.462Z,116
2022-12-19T03:41:52.530Z,115
2022-12-19T03:42:54.532Z,115
2022-12-19T03:43:56.479Z,115
2022-12-19T03:44:58.453Z,115
2022-12-19T03:45:59.481Z,113
2022-12-19T03:47:01.484Z,113
2022-12-19T03:48:03.745Z,113
2022-12-19T03:49:05.467Z,115
2022-12-19T03:50:07.411Z,114
2022-12-19T03:51:09.566Z,115
2022-12-19T03:52:11.575Z,115
2022-12-19T03:53:13.514Z,115
2022-12-19T03:54:15.405Z,114
2022-12-19T03:55:17.628Z,113
2022-12-19T03:56:19.474Z,114
2022-12-19T03:57:21.466Z,114
2022-12-19T03:58:23.485Z,114
2022-12-19T03:59:25.487Z,112
2022-12-19T04:00:27.408Z,113
2022-12-19T04:01:29.619Z,113
2022-12-19T04:02:31.582Z,113
2022-12-19T04:03:33.539Z,112
2022-12-19T04:04:35.528Z,111
2022-12-19T04:05:37.467Z,112
2022-12-19T04:06:39.386Z,113
2022-12-19T04:07:41.550Z,112
2022-12-19T04:08:43.514Z,113
2022-12-19T04:09:45.466Z,112
2022-12-19T04:10:47.635Z,114
2022-12-19T04:11:49.508Z,113
2022-12-19T04:12:51.495Z,111
2022-12-19T04:13:53.442Z,113
2022-12-19T04:14:55.601Z,112
2022-12-19T04:15:57.427Z,112
2022-12-19T04:16:59.370Z,113
2022-12-19T04:18:01.528Z,112
2022-12-19T04:19:03.509Z,111
2022-12-19T04:20:05.530Z,112
2022-12-19T04:21:07.488Z,112
2022-12-19T04:22:09.359Z,112
2022-12-19T04:23:11.409Z,108
2022-12-19T04:24:13.508Z,110
2022-12-19T04:25:15.490Z,113
2022-12-19T04:26:17.468Z,113
2022-12-19T04:27:19.489Z,113
2022-12-19T04:28:21.488Z,112
2022-12-19T04:29:24.009Z,-1
2022-12-19T04:30:25.538Z,112
2022-12-19T04:31:27.527Z,113
2022-12-19T04:32:29.447Z,111
2022-12-19T04:33:31.508Z,111
2022-12-19T04:34:33.479Z,107
2022-12-19T04:35:35.548Z,108
2022-12-19T04:36:37.541Z,107
2022-12-19T04:37:39.352Z,107
2022-12-19T04:38:40.308Z,107
2022-12-19T04:39:41.433Z,107
2022-12-19T04:40:43.473Z,105
2022-12-19T04:41:45.513Z,106
2022-12-19T04:42:47.426Z,105
2022-12-19T04:43:49.430Z,105
2022-12-19T04:44:51.510Z,103
2022-12-19T04:45:57.217Z,104
2022-12-19T04:46:55.457Z,103
2022-12-19T04:47:57.387Z,103
2022-12-19T04:48:58.439Z,102
2022-12-19T04:50:00.396Z,102
2022-12-19T04:51:02.508Z,101
2022-12-19T04:52:04.408Z,101
2022-12-19T04:53:06.532Z,100
2022-12-19T04:54:08.408Z,97
2022-12-19T04:55:09.468Z,100
2022-12-19T04:56:11.507Z,99
2022-12-19T04:57:13.500Z,97
2022-12-19T04:58:20.349Z,97
2022-12-19T04:59:17.498Z,97
2022-12-19T05:00:19.510Z,95
2022-12-19T05:01:21.580Z,96
2022-12-19T05:02:23.529Z,95
2022-12-19T05:03:25.763Z,93
2022-12-19T05:04:27.559Z,92
2022-12-19T05:05:29.414Z,94
2022-12-19T05:06:30.343Z,94
2022-12-19T05:07:32.516Z,92
2022-12-19T05:08:34.396Z,93
2022-12-19T05:09:36.509Z,93
2022-12-19T05:10:38.380Z,92
2022-12-19T05:11:40.397Z,92
2022-12-19T05:12:42.592Z,92
2022-12-19T05:13:44.486Z,90
2022-12-19T05:14:46.547Z,90
2022-12-19T05:15:48.497Z,90
2022-12-19T05:16:50.487Z,91
2022-12-19T05:17:52.506Z,91
2022-12-19T05:18:54.473Z,90
2022-12-19T05:19:56.525Z,90
2022-12-19T05:20:58.407Z,90
2022-12-19T05:21:59.400Z,90
2022-12-19T05:23:03.864Z,90
2022-12-19T05:24:02.464Z,90
2022-12-19T05:25:04.568Z,91
2022-12-19T05:26:06.490Z,90
2022-12-19T05:27:08.364Z,91
2022-12-19T05:28:09.606Z,90
2022-12-19T05:29:11.424Z,91
2022-12-19T05:30:13.548Z,91
2022-12-19T05:31:15.485Z,91
2022-12-19T05:32:17.484Z,91
2022-12-19T05:33:19.471Z,92
2022-12-19T05:34:21.328Z,90
2022-12-19T05:35:22.385Z,89
2022-12-19T05:36:26.468Z,90
2022-12-19T05:37:25.405Z,91
2022-12-19T05:38:27.505Z,90
2022-12-19T05:39:29.483Z,89
2022-12-19T05:40:31.463Z,91
2022-12-19T05:41:33.492Z,92
2022-12-19T05:42:35.490Z,92
2022-12-19T05:43:37.599Z,92
2022-12-19T05:44:39.484Z,91
2022-12-19T05:45:41.522Z,91
2022-12-19T05:46:43.571Z,92
2022-12-19T05:47:45.467Z,92
2022-12-19T05:48:47.401Z,92
2022-12-19T05:49:49.502Z,92
2022-12-19T05:50:51.463Z,94
2022-12-19T05:51:53.515Z,94
2022-12-19T05:52:55.481Z,94
2022-12-19T05:53:57.559Z,94
2022-12-19T05:54:59.464Z,92
2022-12-19T05:56:01.622Z,92
2022-12-19T05:57:03.482Z,93
2022-12-19T05:58:05.475Z,91
2022-12-19T05:59:07.665Z,91
2022-12-19T06:00:09.606Z,92
2022-12-19T06:01:11.605Z,91
2022-12-19T06:02:13.574Z,90
2022-12-19T06:03:15.470Z,90
2022-12-19T06:04:17.444Z,91
2022-12-19T06:05:19.502Z,91
2022-12-19T06:06:21.541Z,90
2022-12-19T06:07:23.441Z,89
2022-12-19T06:08:25.521Z,86
2022-12-19T06:09:27.564Z,83
2022-12-19T06:10:29.649Z,82
2022-12-19T06:11:31.526Z,83
2022-12-19T06:12:33.570Z,82
2022-12-19T06:13:35.416Z,81
2022-12-19T06:14:37.802Z,82
2022-12-19T06:15:39.469Z,81
2022-12-19T06:16:41.664Z,81
2022-12-19T06:17:43.527Z,80
2022-12-19T06:18:45.722Z,80
2022-12-19T06:19:47.580Z,80
2022-12-19T06:20:49.607Z,80
2022-12-19T06:21:51.599Z,79
2022-12-19T06:22:53.619Z,79
2022-12-19T06:23:55.381Z,77
2022-12-19T06:24:56.479Z,76
2022-12-19T06:25:58.514Z,77
2022-12-19T06:27:00.570Z,77
2022-12-19T06:28:02.459Z,76
2022-12-19T06:29:04.558Z,76
2022-12-19T06:30:06.671Z,76
2022-12-19T06:31:08.568Z,74
2022-12-19T06:32:10.499Z,74
2022-12-19T06:33:12.484Z,73
2022-12-19T06:34:27.259Z,74
2022-12-19T06:35:16.582Z,73
2022-12-19T06:36:18.538Z,72
2022-12-19T06:37:20.498Z,71
2022-12-19T06:38:22.481Z,71
2022-12-19T06:39:24.500Z,70
2022-12-19T06:40:26.554Z,69
2022-12-19T06:41:28.641Z,70
2022-12-19T06:42:30.469Z,70
2022-12-19T06:43:32.537Z,70
2022-12-19T06:44:34.577Z,70
2022-12-19T06:45:36.567Z,66
2022-12-19T06:46:38.636Z,67
2022-12-19T06:47:40.577Z,68
2022-12-19T06:48:42.539Z,68
2022-12-19T06:49:44.496Z,68
2022-12-19T06:50:46.501Z,67
2022-12-19T06:51:48.559Z,67
2022-12-19T06:52:50.897Z,67
2022-12-19T06:53:52.599Z,63
2022-12-19T06:54:54.565Z,64
2022-12-19T06:55:56.496Z,64
2022-12-19T06:56:58.556Z,63
2022-12-19T06:58:00.465Z,63
2022-12-19T06:59:02.478Z,63
2022-12-19T07:00:04.638Z,63
2022-12-19T07:01:06.805Z,62
2022-12-19T07:02:08.828Z,62
2022-12-19T07:03:10.503Z,59
2022-12-19T07:04:11.617Z,58
2022-12-19T07:05:13.641Z,57
2022-12-19T07:06:15.607Z,56
2022-12-19T07:07:17.515Z,55
2022-12-19T07:08:19.555Z,55
2022-12-19T07:09:21.563Z,53
2022-12-19T07:10:23.575Z,53
2022-12-19T07:11:25.523Z,52
2022-12-19T07:12:27.556Z,53
2022-12-19T07:13:29.765Z,53
2022-12-19T07:14:31.397Z,53
2022-12-19T07:15:33.518Z,51
2022-12-19T07:16:35.683Z,51
2022-12-19T07:17:37.521Z,51
2022-12-19T07:18:39.511Z,52
2022-12-19T07:19:41.492Z,50
2022-12-19T07:20:45.310Z,50
2022-12-19T07:21:45.574Z,50
2022-12-19T07:22:47.356Z,50
2022-12-19T07:23:48.396Z,50
2022-12-19T07:24:49.340Z,51
2022-12-19T07:25:50.474Z,51
2022-12-19T07:26:51.479Z,50
2022-12-19T07:27:53.525Z,50
2022-12-19T07:28:55.557Z,50
2022-12-19T07:29:57.440Z,50
2022-12-19T07:30:58.475Z,49
2022-12-19T07:32:00.729Z,50
2022-12-19T07:33:02.515Z,50
2022-12-19T07:34:04.555Z,50
2022-12-19T07:35:06.620Z,50
2022-12-19T07:36:08.522Z,51
2022-12-19T07:37:10.595Z,50
2022-12-19T07:38:12.634Z,50
2022-12-19T07:39:14.526Z,50
2022-12-19T07:40:16.643Z,50
2022-12-19T07:41:18.436Z,50
2022-12-19T07:42:20.535Z,50
2022-12-19T07:43:22.515Z,50
2022-12-19T07:44:24.693Z,51
2022-12-19T07:45:26.691Z,50
2022-12-19T07:46:28.478Z,50
2022-12-19T07:47:30.480Z,50
2022-12-19T07:48:32.621Z,50
2022-12-19T07:49:34.503Z,51
2022-12-19T07:50:36.429Z,50
2022-12-19T07:51:37.524Z,49
2022-12-19T07:52:39.472Z,49
2022-12-19T07:53:41.576Z,49
2022-12-19T07:54:43.638Z,49
2022-12-19T07:55:45.544Z,49
2022-12-19T07:56:47.551Z,48
2022-12-19T07:57:49.594Z,48
2022-12-19T07:58:51.650Z,47
2022-12-19T07:59:53.579Z,48
2022-12-19T08:00:55.639Z,48
2022-12-19T08:01:57.606Z,47
2022-12-19T08:02:59.810Z,48
2022-12-19T08:04:01.557Z,47
2022-12-19T08:05:03.595Z,48
2022-12-19T08:06:05.682Z,46
2022-12-19T08:07:07.558Z,46
2022-12-19T08:08:09.503Z,46
2022-12-19T08:09:11.494Z,46
2022-12-19T08:10:13.476Z,46
2022-12-19T08:11:15.635Z,45
2022-12-19T08:12:17.549Z,46
2022-12-19T08:13:19.538Z,46
2022-12-19T08:14:21.577Z,46
2022-12-19T08:15:25.323Z,47
2022-12-19T08:16:27.508Z,46
2022-12-19T08:17:29.832Z,47
2022-12-19T08:18:31.636Z,46
2022-12-19T08:19:33.579Z,46
2022-12-19T08:20:35.580Z,47
2022-12-19T08:21:37.555Z,47
2022-12-19T08:22:39.662Z,46
2022-12-19T08:23:41.627Z,48
2022-12-19T08:24:43.567Z,48
2022-12-19T08:25:45.563Z,48
2022-12-19T08:26:47.921Z,48
2022-12-19T08:27:49.576Z,48
2022-12-19T08:28:51.609Z,46
2022-12-19T08:29:53.513Z,46
2022-12-19T08:30:55.590Z,45
2022-12-19T08:31:57.503Z,45
2022-12-19T08:32:59.634Z,45
2022-12-19T08:34:01.711Z,45
2022-12-19T08:35:03.555Z,45
2022-12-19T08:36:05.548Z,45
2022-12-19T08:37:07.456Z,44
2022-12-19T08:38:08.640Z,44
2022-12-19T08:39:10.575Z,45
2022-12-19T08:40:12.642Z,43
2022-12-19T08:41:14.555Z,42
2022-12-19T08:42:16.520Z,41
2022-12-19T08:43:18.595Z,42
2022-12-19T08:44:20.604Z,41
2022-12-19T08:45:22.474Z,41
2022-12-19T08:46:24.641Z,40
2022-12-19T08:47:26.477Z,41
2022-12-19T08:48:28.595Z,41
2022-12-19T08:49:30.736Z,41
2022-12-19T08:50:32.618Z,40
2022-12-19T08:51:34.597Z,40
2022-12-19T08:52:36.512Z,40
2022-12-19T08:53:38.419Z,40
2022-12-19T08:54:39.504Z,40
2022-12-19T08:55:41.524Z,40
2022-12-19T08:56:45.308Z,40
2022-12-19T08:57:45.578Z,41
2022-12-19T08:58:47.637Z,40
2022-12-19T08:59:49.604Z,40
2022-12-19T09:00:55.675Z,40
2022-12-19T09:01:53.540Z,40
2022-12-19T09:02:54.672Z,40
2022-12-19T09:04:03.923Z,40
2022-12-19T09:06:02.731Z,39
2022-12-19T09:06:06.852Z,39
2022-12-19T09:07:02.620Z,40
2022-12-19T09:08:04.548Z,40
2022-12-19T09:09:06.525Z,39
2022-12-19T09:10:08.570Z,40
2022-12-19T09:11:13.491Z,41
2022-12-19T09:12:15.555Z,41
2022-12-19T09:13:17.553Z,41
2022-12-19T09:14:21.103Z,42
2022-12-19T09:15:21.496Z,41
2022-12-19T09:16:23.569Z,41
2022-12-19T09:17:25.677Z,42
2022-12-19T09:18:27.598Z,42
2022-12-19T09:19:29.998Z,41
2022-12-19T09:20:31.790Z,42
2022-12-19T09:21:33.560Z,42
2022-12-19T09:22:35.631Z,44
2022-12-19T09:23:37.657Z,42
2022-12-19T09:24:39.625Z,41
2022-12-19T09:25:41.559Z,41
2022-12-19T09:26:43.556Z,41
2022-12-19T09:28:17.807Z,41
2022-12-19T09:28:47.740Z,40
2022-12-19T09:29:49.637Z,41
2022-12-19T09:30:51.693Z,40
2022-12-19T09:31:56.020Z,41
2022-12-19T09:32:55.537Z,40
2022-12-19T09:33:57.639Z,40
2022-12-19T09:34:59.560Z,40
2022-12-19T09:36:01.716Z,39
2022-12-19T09:37:03.630Z,39
2022-12-19T09:38:05.722Z,39
2022-12-19T09:39:07.575Z,38
2022-12-19T09:40:09.618Z,38
2022-12-19T09:41:11.599Z,38
2022-12-19T09:42:13.550Z,38
2022-12-19T09:43:15.572Z,37
2022-12-19T09:44:17.574Z,37
2022-12-19T09:45:29.947Z,37
2022-12-19T09:46:21.674Z,38
2022-12-19T09:47:23.555Z,37
2022-12-19T09:48:25.499Z,38
2022-12-19T09:49:27.574Z,37
2022-12-19T09:50:29.903Z,37
2022-12-19T09:51:34.637Z,36
2022-12-19T09:52:36.757Z,36
2022-12-19T09:53:38.725Z,36
2022-12-19T09:54:40.618Z,36
2022-12-19T09:55:42.549Z,36
2022-12-19T09:56:46.073Z,37
2022-12-19T09:57:46.517Z,37
2022-12-19T09:58:47.779Z,37
2022-12-19T09:59:50.324Z,38
2022-12-19T10:00:55.150Z,38
2022-12-19T10:01:53.724Z,38
2022-12-19T10:02:55.808Z,38
2022-12-19T10:03:57.691Z,38
2022-12-19T10:04:59.994Z,38
2022-12-19T10:07:05.366Z,37
2022-12-19T10:07:10.894Z,36
2022-12-19T10:08:09.503Z,37
2022-12-19T10:09:45.416Z,37
2022-12-19T10:10:53.751Z,36
2022-12-19T10:12:35.134Z,37
2022-12-19T10:12:37.162Z,36
2022-12-19T10:13:16.287Z,36
2022-12-19T10:14:17.536Z,35
2022-12-19T10:15:18.782Z,36
2022-12-19T10:16:20.647Z,38
2022-12-19T10:17:24.391Z,37
2022-12-19T10:18:24.598Z,37
2022-12-19T10:19:26.580Z,37
2022-12-19T10:20:28.857Z,37
2022-12-19T10:21:51.135Z,36
2022-12-19T10:22:32.716Z,37
2022-12-19T10:23:34.616Z,37
2022-12-19T10:24:36.606Z,36
2022-12-19T10:25:38.641Z,38
2022-12-19T10:26:40.633Z,36
2022-12-19T10:27:44.268Z,35
2022-12-19T10:28:44.867Z,36
2022-12-19T10:29:46.504Z,37
2022-12-19T10:30:47.682Z,37
2022-12-19T10:31:53.537Z,37
2022-12-19T10:32:51.654Z,36
2022-12-19T10:33:53.701Z,36
2022-12-19T10:34:55.658Z,35
2022-12-19T10:35:59.721Z,35
2022-12-19T10:37:20.996Z,35
2022-12-19T10:38:01.813Z,36
2022-12-19T10:39:03.573Z,36
2022-12-19T10:40:10.442Z,37
2022-12-19T10:41:08.743Z,36
2022-12-19T10:42:11.000Z,36
2022-12-19T10:43:17.189Z,36
2022-12-19T10:44:14.631Z,35
2022-12-19T10:45:16.557Z,35
2022-12-19T10:46:18.675Z,34
2022-12-19T10:47:20.620Z,34
2022-12-19T10:48:30.427Z,34
2022-12-19T10:49:24.702Z,33
2022-12-19T10:50:26.549Z,33
2022-12-19T10:51:28.667Z,33
2022-12-19T10:52:30.644Z,33
2022-12-19T10:53:32.857Z,34
2022-12-19T10:54:34.839Z,33
2022-12-19T10:55:36.725Z,34
2022-12-19T10:56:38.637Z,34
2022-12-19T10:57:40.698Z,33
2022-12-19T10:58:42.692Z,31
2022-12-19T10:59:44.533Z,31
2022-12-19T11:00:46.608Z,31
2022-12-19T11:01:49.307Z,33
2022-12-19T11:02:50.692Z,33
2022-12-19T11:03:52.701Z,33
2022-12-19T11:04:54.715Z,33
2022-12-19T11:05:57.908Z,34
2022-12-19T11:06:58.624Z,34
2022-12-19T11:08:00.641Z,34
2022-12-19T11:09:02.744Z,33
2022-12-19T11:10:28.093Z,33
2022-12-19T11:11:22.957Z,33
2022-12-19T11:12:52.271Z,34
2022-12-19T11:15:24.878Z,33
2022-12-19T11:15:45.468Z,33
2022-12-19T11:16:46.604Z,31
2022-12-19T11:19:32.579Z,31
2022-12-19T11:19:47.151Z,31
2022-12-19T11:22:25.787Z,31
2022-12-19T11:23:57.064Z,31
2022-12-19T11:24:20.362Z,30
2022-12-19T11:26:54.194Z,30
2022-12-19T11:28:34.568Z,30
2022-12-19T11:29:28.075Z,30
2022-12-19T11:29:29.693Z,31
2022-12-19T11:30:21.624Z,31
2022-12-19T11:30:22.170Z,30
2022-12-19T11:30:22.279Z,31
2022-12-19T11:30:23.949Z,30
2022-12-19T11:32:49.117Z,30
2022-12-19T11:33:50.692Z,28
2022-12-19T11:34:53.360Z,27
2022-12-19T11:35:54.699Z,27
2022-12-19T11:36:56.602Z,27
2022-12-19T11:37:58.617Z,28
2022-12-19T11:39:00.619Z,26
2022-12-19T11:40:02.876Z,25
2022-12-19T11:41:04.691Z,26
2022-12-19T11:42:06.641Z,25
2022-12-19T11:43:42.934Z,25
2022-12-19T11:44:10.719Z,26
2022-12-19T11:45:12.711Z,25
2022-12-19T11:46:19.562Z,25
2022-12-19T11:47:16.560Z,25
2022-12-19T11:48:18.640Z,26
2022-12-19T11:49:20.702Z,26
2022-12-19T11:50:22.717Z,26
2022-12-19T11:51:24.612Z,26
2022-12-19T11:53:28.653Z,26
2022-12-19T11:54:31.148Z,26
2022-12-19T11:55:32.780Z,27
2022-12-19T11:56:34.727Z,27
2022-12-19T11:57:36.756Z,27
2022-12-19T11:58:38.761Z,27
2022-12-19T11:59:40.688Z,27
2022-12-19T12:00:42.618Z,27
2022-12-19T12:01:44.863Z,27
2022-12-19T12:02:46.669Z,27
2022-12-19T12:03:54.770Z,27
2022-12-19T12:04:50.651Z,27
2022-12-19T12:05:52.660Z,28
2022-12-19T12:06:54.736Z,28
2022-12-19T12:08:51.770Z,27
2022-12-19T12:10:22.089Z,28
2022-12-19T12:11:00.389Z,28
2022-12-19T12:11:35.051Z,28
2022-12-19T12:16:16.106Z,28
2022-12-19T12:16:39.966Z,28
2022-12-19T12:18:20.403Z,28
2022-12-19T12:18:50.512Z,29
2022-12-19T12:19:20.546Z,29
2022-12-19T12:22:12.412Z,28
2022-12-19T12:25:10.793Z,28
2022-12-19T12:26:07.300Z,29
2022-12-19T12:26:14.127Z,28
2022-12-19T12:27:27.497Z,29
2022-12-19T12:31:33.405Z,30
2022-12-19T12:31:33.529Z,30
2022-12-19T12:31:34.490Z,31
2022-12-19T12:31:34.528Z,29
2022-12-19T12:31:36.218Z,30
2022-12-19T12:31:37.337Z,29
2022-12-19T12:31:37.693Z,30
2022-12-19T12:31:37.793Z,30
2022-12-19T12:32:07.631Z,31
2022-12-19T12:35:25.294Z,33
2022-12-19T12:35:25.557Z,31
2022-12-19T12:35:26.545Z,33
2022-12-19T12:38:18.569Z,33
2022-12-19T12:39:57.643Z,34
2022-12-19T12:40:59.819Z,33
2022-12-19T12:42:01.772Z,33
2022-12-19T12:43:03.763Z,33
2022-12-19T12:44:05.766Z,34
2022-12-19T12:45:07.760Z,34
2022-12-19T12:46:09.717Z,34
2022-12-19T12:47:11.819Z,34
2022-12-19T12:48:13.677Z,35
2022-12-19T12:49:15.727Z,35
2022-12-19T12:50:17.696Z,35
2022-12-19T12:51:19.618Z,35
2022-12-19T12:52:21.658Z,35
2022-12-19T12:53:23.787Z,35
2022-12-19T12:54:25.819Z,35
2022-12-19T12:55:27.701Z,35
2022-12-19T12:56:29.600Z,35
2022-12-19T12:57:31.834Z,35
2022-12-19T12:58:33.582Z,34
2022-12-19T12:59:34.699Z,34
2022-12-19T13:00:36.717Z,34
2022-12-19T13:01:38.862Z,33
2022-12-19T13:02:40.904Z,33
2022-12-19T13:03:42.619Z,34
2022-12-19T13:04:47.056Z,34
2022-12-19T13:05:46.630Z,35
2022-12-19T13:06:48.778Z,34
2022-12-19T13:07:50.681Z,34
2022-12-19T13:08:52.641Z,34
2022-12-19T13:09:54.640Z,34
2022-12-19T13:10:56.697Z,34
2022-12-19T13:11:58.764Z,34
2022-12-19T13:13:00.766Z,33
2022-12-19T13:14:02.716Z,33
2022-12-19T13:15:04.709Z,34
2022-12-19T13:16:06.697Z,34
2022-12-19T13:17:08.806Z,34
2022-12-19T13:18:10.694Z,34
2022-12-19T13:19:17.606Z,35
2022-12-19T13:20:14.782Z,35
2022-12-19T13:21:16.732Z,35
2022-12-19T13:22:18.655Z,35
2022-12-19T13:23:20.722Z,35
2022-12-19T13:24:22.720Z,36
2022-12-19T13:25:24.754Z,36
2022-12-19T13:26:26.760Z,36
2022-12-19T13:27:28.639Z,36
2022-12-19T13:28:30.669Z,36
2022-12-19T13:29:32.759Z,36
2022-12-19T13:30:36.221Z,36
2022-12-19T13:31:36.676Z,36
2022-12-19T13:32:38.708Z,36
2022-12-19T13:33:40.720Z,36
2022-12-19T13:34:45.025Z,36
2022-12-19T13:36:39.661Z,37
2022-12-19T13:39:26.668Z,36
2022-12-19T13:39:52.810Z,37
2022-12-19T13:39:53.428Z,36
2022-12-19T13:40:06.388Z,37
2022-12-19T13:40:54.683Z,37
2022-12-19T13:41:56.699Z,38
2022-12-19T13:43:10.237Z,37
2022-12-19T13:44:00.735Z,37
2022-12-19T13:45:02.670Z,37
2022-12-19T13:46:04.923Z,38
2022-12-19T13:47:06.758Z,39
2022-12-19T13:48:08.741Z,37
2022-12-19T13:49:10.704Z,37
2022-12-19T13:50:12.779Z,37
2022-12-19T13:51:14.699Z,38
2022-12-19T13:52:16.691Z,38
2022-12-19T13:53:18.638Z,38
2022-12-19T13:54:20.682Z,38
2022-12-19T13:55:22.567Z,39
2022-12-19T13:56:23.643Z,39
2022-12-19T13:57:25.786Z,40
2022-12-19T13:58:28.747Z,40
2022-12-19T13:59:29.870Z,39
2022-12-19T14:00:31.678Z,40
2022-12-19T14:01:33.763Z,40
2022-12-19T14:02:43.855Z,39
2022-12-19T14:03:37.798Z,40
2022-12-19T14:04:39.718Z,40
2022-12-19T14:06:15.699Z,40
2022-12-19T14:06:43.801Z,40
2022-12-19T14:07:45.699Z,40
2022-12-19T14:08:47.548Z,41
2022-12-19T14:11:25.517Z,40
2022-12-19T14:11:29.597Z,41
2022-12-19T14:12:27.600Z,41
2022-12-19T14:13:50.121Z,41
2022-12-19T14:14:05.068Z,41
2022-12-19T14:15:12.648Z,40
2022-12-19T14:16:02.768Z,41
2022-12-19T14:17:04.626Z,41
2022-12-19T14:18:21.953Z,41
2022-12-19T14:19:08.943Z,41
2022-12-19T14:21:39.618Z,41
2022-12-19T14:22:02.923Z,41
2022-12-19T14:22:20.985Z,41
2022-12-19T14:23:20.464Z,42
2022-12-19T14:24:19.720Z,41
2022-12-19T14:25:49.814Z,42
2022-12-19T14:28:16.518Z,43
2022-12-19T14:28:22.672Z,42
2022-12-19T14:28:29.749Z,42
2022-12-19T14:29:45.638Z,42
2022-12-19T14:30:32.531Z,44
2022-12-19T14:31:34.240Z,44
2022-12-19T14:33:41.445Z,42
2022-12-19T14:33:41.457Z,42
2022-12-19T14:35:55.421Z,41
2022-12-19T14:36:09.297Z,45
2022-12-19T14:36:43.757Z,42
2022-12-19T14:39:18.233Z,42
2022-12-19T14:39:21.385Z,42
2022-12-19T14:39:48.614Z,42
2022-12-19T14:41:07.687Z,42
2022-12-19T14:41:54.654Z,42
2022-12-19T14:43:14.876Z,44
2022-12-19T14:49:58.362Z,44
2022-12-19T14:50:16.194Z,45